createdAt,value
2018-11-05T00:01:08.495Z,26.80
2018-11-05T00:05:10.965Z,23.23
2018-11-05T00:09:13.585Z,26.77
2018-11-05T00:13:17.779Z,26.20
2018-11-05T00:17:20.317Z,28.03
2018-11-05T00:21:22.827Z,28.57
2018-11-05T00:25:25.253Z,26.33
2018-11-05T00:29:27.890Z,26.03
2018-11-05T00:33:30.393Z,26.23
2018-11-05T00:37:32.877Z,26.93
2018-11-05T00:41:36.595Z,26.13
2018-11-05T00:45:39.717Z,24.83
2018-11-05T00:49:42.194Z,26.20
2018-11-05T00:53:44.908Z,27.57
2018-11-05T00:57:47.334Z,25.27
2018-11-05T01:01:49.911Z,28.30
2018-11-05T01:05:52.508Z,26.47
2018-11-05T01:09:54.982Z,25.27
2018-11-05T01:13:57.513Z,25.03
2018-11-05T01:18:00.029Z,25.53
2018-11-05T01:22:02.567Z,26.57
2018-11-05T01:26:05.060Z,24.63
2018-11-05T01:30:09.878Z,21.87
2018-11-05T01:34:12.394Z,23.87
2018-11-05T01:38:14.918Z,22.00
2018-11-05T01:42:17.402Z,21.87
2018-11-05T01:46:19.892Z,22.77
2018-11-05T01:50:22.483Z,24.23
2018-11-05T01:54:24.954Z,22.63
2018-11-05T01:58:27.474Z,21.05
2018-11-05T02:02:29.897Z,21.60
2018-11-05T02:06:32.437Z,21.53
2018-11-05T02:10:35.004Z,22.93
2018-11-05T02:14:37.549Z,21.40
2018-11-05T02:18:40.076Z,22.00
2018-11-05T02:22:42.675Z,23.77
2018-11-05T02:26:45.194Z,24.30
2018-11-05T02:30:47.819Z,24.07
2018-11-05T02:34:50.527Z,23.17
2018-11-05T02:38:53.012Z,21.87
2018-11-05T02:42:55.606Z,22.07
2018-11-05T02:46:58.019Z,25.00
2018-11-05T02:51:00.617Z,23.30
2018-11-05T02:55:03.385Z,25.27
2018-11-05T02:59:05.911Z,23.57
2018-11-05T03:03:08.388Z,22.80
2018-11-05T03:07:11.006Z,27.90
2018-11-05T03:11:13.522Z,23.07
2018-11-05T03:15:17.161Z,26.23
2018-11-05T03:19:19.646Z,23.17
2018-11-05T03:23:22.122Z,28.53
2018-11-05T03:27:24.689Z,24.97
2018-11-05T03:31:27.228Z,26.27
2018-11-05T03:35:29.662Z,23.90
2018-11-05T03:39:32.179Z,18.87
2018-11-05T03:43:34.696Z,20.53
2018-11-05T03:47:37.346Z,20.83
2018-11-05T03:51:39.887Z,23.33
2018-11-05T03:55:42.517Z,25.20
2018-11-05T03:59:45.069Z,23.40
2018-11-05T04:03:47.589Z,20.57
2018-11-05T04:07:50.042Z,22.70
2018-11-05T04:11:52.652Z,22.07
2018-11-05T04:15:55.156Z,20.17
2018-11-05T04:19:57.687Z,23.53
2018-11-05T04:24:00.178Z,23.13
2018-11-05T04:28:02.668Z,22.90
2018-11-05T04:32:05.177Z,22.87
2018-11-05T04:36:07.738Z,21.50
2018-11-05T04:40:10.944Z,25.13
2018-11-05T04:44:13.472Z,30.87
2018-11-05T04:48:15.903Z,30.90
2018-11-05T04:52:18.452Z,30.40
2018-11-05T04:56:21.053Z,24.23
2018-11-05T05:00:23.488Z,19.80
2018-11-05T05:04:26.010Z,21.60
2018-11-05T05:08:28.570Z,23.80
2018-11-05T05:12:31.205Z,21.33
2018-11-05T05:16:33.938Z,23.03
2018-11-05T05:20:36.413Z,24.37
2018-11-05T05:24:39.348Z,24.63
2018-11-05T05:28:41.867Z,23.10
2018-11-05T05:32:45.064Z,24.27
2018-11-05T05:36:47.564Z,23.87
2018-11-05T05:40:50.154Z,25.93
2018-11-05T05:44:52.575Z,27.53
2018-11-05T05:48:55.106Z,26.70
2018-11-05T05:52:57.570Z,29.52
2018-11-05T05:57:00.074Z,28.23
2018-11-05T06:01:02.666Z,31.23
2018-11-05T06:05:06.485Z,29.33
2018-11-05T06:09:09.969Z,30.07
2018-11-05T06:13:12.529Z,32.97
2018-11-05T06:17:15.266Z,29.83
2018-11-05T06:21:17.710Z,29.63
2018-11-05T06:25:20.192Z,29.47
2018-11-05T06:29:22.674Z,32.73
2018-11-05T06:33:25.127Z,29.07
2018-11-05T06:37:27.596Z,28.77
2018-11-05T06:41:30.238Z,33.07
2018-11-05T06:45:32.814Z,29.03
2018-11-05T06:49:35.156Z,30.47
2018-11-05T06:53:37.712Z,31.47
2018-11-05T06:57:40.684Z,32.03
2018-11-05T07:01:43.437Z,33.50
2018-11-05T07:05:45.985Z,37.80
2018-11-05T07:09:48.528Z,32.60
2018-11-05T07:13:51.139Z,32.50
2018-11-05T07:17:53.825Z,37.20
2018-11-05T07:21:56.459Z,34.37
2018-11-05T07:25:59.001Z,34.73
2018-11-05T07:30:01.660Z,34.87
2018-11-05T07:34:04.437Z,34.00
2018-11-05T07:38:06.776Z,33.63
2018-11-05T07:42:09.293Z,31.60
2018-11-05T07:46:11.936Z,36.47
2018-11-05T07:50:15.641Z,33.03
2018-11-05T07:54:18.076Z,35.20
2018-11-05T07:58:20.606Z,32.20
2018-11-05T08:02:23.186Z,32.13
2018-11-05T08:06:25.605Z,33.53
2018-11-05T08:10:28.169Z,31.47
2018-11-05T08:14:30.750Z,34.13
2018-11-05T08:18:33.234Z,34.67
2018-11-05T08:22:36.030Z,32.00
2018-11-05T08:26:38.579Z,30.17
2018-11-05T08:30:41.139Z,29.33
2018-11-05T08:34:43.616Z,30.87
2018-11-05T08:38:46.174Z,31.20
2018-11-05T08:42:49.575Z,29.93
2018-11-05T08:46:52.244Z,31.13
2018-11-05T08:50:54.630Z,31.23
2018-11-05T08:54:57.177Z,32.93
2018-11-05T08:58:59.794Z,35.47
2018-11-05T09:03:02.394Z,32.40
2018-11-05T09:07:05.185Z,33.83
2018-11-05T09:11:07.958Z,28.90
2018-11-05T09:15:12.215Z,28.73
2018-11-05T09:19:14.834Z,30.77
2018-11-05T09:23:17.446Z,30.27
2018-11-05T09:27:20.154Z,28.77
2018-11-05T09:31:22.871Z,32.93
2018-11-05T09:35:25.382Z,32.03
2018-11-05T09:39:27.876Z,30.77
2018-11-05T09:43:30.414Z,30.47
2018-11-05T09:47:32.840Z,33.37
2018-11-05T09:51:35.368Z,30.63
2018-11-05T09:55:38.028Z,32.73
2018-11-05T09:59:40.539Z,31.80
2018-11-05T10:03:59.790Z,33.20
2018-11-05T10:08:02.324Z,29.90
2018-11-05T10:12:04.960Z,27.93
2018-11-05T10:16:07.463Z,27.60
2018-11-05T10:20:12.914Z,26.50
2018-11-05T10:24:15.392Z,24.77
2018-11-05T10:28:17.929Z,29.87
2018-11-05T10:32:20.404Z,28.53
2018-11-05T10:36:23.188Z,33.27
2018-11-05T10:40:26.038Z,34.23
2018-11-05T10:44:28.604Z,29.77
2018-11-05T10:48:31.209Z,33.40
2018-11-05T10:52:33.760Z,29.40
2018-11-05T10:56:36.297Z,29.53
2018-11-05T11:00:44.383Z,34.97
2018-11-05T11:04:46.888Z,28.43
2018-11-05T11:08:49.323Z,30.13
2018-11-05T11:12:51.773Z,29.97
2018-11-05T11:16:54.464Z,30.00
2018-11-05T11:20:56.893Z,38.33
2018-11-05T11:24:59.344Z,30.93
2018-11-05T11:29:01.957Z,32.27
2018-11-05T11:33:04.818Z,31.00
2018-11-05T11:37:07.420Z,30.63
2018-11-05T11:41:09.939Z,30.17
2018-11-05T11:45:13.513Z,30.03
2018-11-05T11:49:16.137Z,28.70
2018-11-05T11:53:18.846Z,30.77
2018-11-05T11:57:21.174Z,29.00
2018-11-05T12:01:23.725Z,32.80
2018-11-05T12:05:26.361Z,31.20
2018-11-05T12:09:28.757Z,27.53
2018-11-05T12:13:31.423Z,30.30
2018-11-05T12:17:33.883Z,25.97
2018-11-05T12:21:36.347Z,27.07
2018-11-05T12:25:38.800Z,25.83
2018-11-05T12:29:41.309Z,26.43
2018-11-05T12:33:43.857Z,25.93
2018-11-05T12:37:47.510Z,28.23
2018-11-05T12:41:50.094Z,28.83
2018-11-05T12:45:52.729Z,26.13
2018-11-05T12:49:55.264Z,28.00
2018-11-05T12:53:57.888Z,30.00
2018-11-05T12:58:00.436Z,26.03
2018-11-05T13:02:03.186Z,27.77
2018-11-05T13:06:05.808Z,26.27
2018-11-05T13:10:11.012Z,30.77
2018-11-05T13:14:13.754Z,28.00
2018-11-05T13:18:16.155Z,29.40
2018-11-05T13:22:18.864Z,30.50
2018-11-05T13:26:21.261Z,26.57
2018-11-05T13:30:23.901Z,28.27
2018-11-05T13:34:26.647Z,26.70
2018-11-05T13:38:29.255Z,26.17
2018-11-05T13:42:32.052Z,27.47
2018-11-05T13:46:35.052Z,25.53
2018-11-05T13:50:37.417Z,28.27
2018-11-05T13:54:40.382Z,27.70
2018-11-05T13:58:43.079Z,29.60
2018-11-05T14:02:45.692Z,27.13
2018-11-05T14:06:48.332Z,25.80
2018-11-05T14:10:51.114Z,29.10
2018-11-05T14:14:53.571Z,28.20
2018-11-05T14:18:56.183Z,25.30
2018-11-05T14:22:58.842Z,26.90
2018-11-05T14:27:01.387Z,27.87
2018-11-05T14:31:04.239Z,27.47
2018-11-05T14:35:06.865Z,25.97
2018-11-05T14:39:11.828Z,26.27
2018-11-05T14:43:14.552Z,25.87
2018-11-05T14:47:16.920Z,25.03
2018-11-05T14:51:19.513Z,27.27
2018-11-05T14:55:21.944Z,25.67
2018-11-05T14:59:24.412Z,25.53
2018-11-05T15:03:26.962Z,30.63
2018-11-05T15:07:29.540Z,28.80
2018-11-05T15:11:31.965Z,28.23
2018-11-05T15:15:34.518Z,28.47
2018-11-05T15:19:37.322Z,33.47
2018-11-05T15:23:39.477Z,30.17
2018-11-05T15:27:42.128Z,31.23
2018-11-05T15:31:44.657Z,28.63
2018-11-05T15:35:47.127Z,30.13
2018-11-05T15:39:49.662Z,36.63
2018-11-05T15:43:52.151Z,37.47
2018-11-05T15:47:54.646Z,29.87
2018-11-05T15:51:57.489Z,30.80
2018-11-05T15:55:59.652Z,30.90
2018-11-05T16:00:02.396Z,33.20
2018-11-05T16:04:05.374Z,43.20
2018-11-05T16:08:07.862Z,31.77
2018-11-05T16:12:10.496Z,32.90
2018-11-05T16:16:13.202Z,40.67
2018-11-05T16:20:21.051Z,50.03
2018-11-05T16:24:23.744Z,52.73
2018-11-05T16:28:26.181Z,42.65
2018-11-05T16:32:28.688Z,36.10
2018-11-05T16:36:31.111Z,40.13
2018-11-05T16:40:33.542Z,35.10
2018-11-05T16:44:36.205Z,38.87
2018-11-05T16:48:38.762Z,33.23
2018-11-05T16:52:41.462Z,36.93
2018-11-05T16:56:43.982Z,35.83
2018-11-05T17:00:46.505Z,31.60
2018-11-05T17:04:49.027Z,32.30
2018-11-05T17:08:51.494Z,34.07
2018-11-05T17:12:54.199Z,32.63
2018-11-05T17:16:56.605Z,32.57
2018-11-05T17:20:59.095Z,30.80
2018-11-05T17:25:01.867Z,28.40
2018-11-05T17:29:04.542Z,28.90
2018-11-05T17:33:06.975Z,39.97
2018-11-05T17:37:09.405Z,40.17
2018-11-05T17:41:12.043Z,36.17
2018-11-05T17:45:15.948Z,42.57
2018-11-05T17:49:18.508Z,39.23
2018-11-05T17:53:21.146Z,33.27
2018-11-05T17:57:23.535Z,42.10
2018-11-05T18:01:26.235Z,42.33
2018-11-05T18:05:28.762Z,42.03
2018-11-05T18:09:31.309Z,37.17
2018-11-05T18:13:33.806Z,39.63
2018-11-05T18:17:36.685Z,37.13
2018-11-05T18:21:39.220Z,38.43
2018-11-05T18:25:41.716Z,40.43
2018-11-05T18:29:44.176Z,44.70
2018-11-05T18:33:46.591Z,42.33
2018-11-05T18:37:50.754Z,40.03
2018-11-05T18:41:53.244Z,42.57
2018-11-05T18:45:55.719Z,66.63
2018-11-05T18:49:58.881Z,43.73
2018-11-05T18:54:01.402Z,43.20
2018-11-05T18:58:03.854Z,39.77
2018-11-05T19:02:06.401Z,44.15
2018-11-05T19:06:10.010Z,45.37
2018-11-05T19:10:12.765Z,43.70
2018-11-05T19:14:15.763Z,44.20
2018-11-05T19:18:18.435Z,46.00
2018-11-05T19:22:20.972Z,49.23
2018-11-05T19:26:23.415Z,46.10
2018-11-05T19:30:27.102Z,53.13
2018-11-05T19:34:29.725Z,51.40
2018-11-05T19:38:32.313Z,51.73
2018-11-05T19:42:35.037Z,47.97
2018-11-05T19:46:37.894Z,53.47
2018-11-05T19:50:40.409Z,56.07
2018-11-05T19:54:43.066Z,55.50
2018-11-05T19:58:45.590Z,50.33
2018-11-05T20:02:48.782Z,51.87
2018-11-05T20:06:52.317Z,53.43
2018-11-05T20:10:54.956Z,51.87
2018-11-05T20:14:58.582Z,51.13
2018-11-05T20:19:01.137Z,52.03
2018-11-05T20:23:04.255Z,55.83
2018-11-05T20:27:06.908Z,52.70
2018-11-05T20:31:09.568Z,49.27
2018-11-05T20:35:11.985Z,50.50
2018-11-05T20:39:14.461Z,54.23
2018-11-05T20:43:16.902Z,45.53
2018-11-05T20:47:20.084Z,52.53
2018-11-05T20:51:22.531Z,50.77
2018-11-05T20:55:25.061Z,43.13
2018-11-05T20:59:28.850Z,50.37
2018-11-05T21:03:32.386Z,52.00
2018-11-05T21:07:34.994Z,48.03
2018-11-05T21:11:37.455Z,50.07
2018-11-05T21:15:40.640Z,55.03
2018-11-05T21:19:43.282Z,45.33
2018-11-05T21:23:46.370Z,49.03
2018-11-05T21:27:48.809Z,44.90
2018-11-05T21:31:51.319Z,50.10
2018-11-05T21:35:53.821Z,49.77
2018-11-05T21:39:56.293Z,48.23
2018-11-05T21:43:59.082Z,53.40
2018-11-05T21:48:02.766Z,60.70
2018-11-05T21:52:05.246Z,58.83
2018-11-05T21:56:07.762Z,57.87
2018-11-05T22:00:12.989Z,55.87
2018-11-05T22:04:15.459Z,50.90
2018-11-05T22:08:17.988Z,53.37
2018-11-05T22:12:20.433Z,61.50
2018-11-05T22:16:22.844Z,56.23
2018-11-05T22:20:26.524Z,56.00
2018-11-05T22:24:29.044Z,62.83
2018-11-05T22:28:31.515Z,62.40
2018-11-05T22:32:34.628Z,47.53
2018-11-05T22:36:37.386Z,47.80
2018-11-05T22:40:40.019Z,53.63
2018-11-05T22:44:42.538Z,68.57
2018-11-05T22:48:45.133Z,63.10
2018-11-05T22:52:48.079Z,59.70
2018-11-05T22:56:50.527Z,62.57
2018-11-05T23:00:58.857Z,59.53
2018-11-05T23:05:01.372Z,59.13
2018-11-05T23:09:05.622Z,45.43
2018-11-05T23:13:08.633Z,45.90
2018-11-05T23:17:11.250Z,55.83
2018-11-05T23:21:13.699Z,54.40
2018-11-05T23:25:16.318Z,45.13
2018-11-05T23:29:19.051Z,48.67
2018-11-05T23:33:21.651Z,53.50
2018-11-05T23:37:23.987Z,57.13
2018-11-05T23:41:26.467Z,48.07
2018-11-05T23:45:29.229Z,44.53
2018-11-05T23:49:31.847Z,42.53
2018-11-05T23:53:34.444Z,37.03
2018-11-05T23:57:36.983Z,52.23
